sensor_id;sensor_type;location;lat;lon;timestamp;P1;durP1;ratioP1;P2;durP2;ratioP2
3185;SDS011;1604;53.700;10.252;2023-09-30T00:00:14;26.37;;;5.57;;
3185;SDS011;1604;53.700;10.252;2023-09-30T00:03:18;10.97;;;4.57;;
3185;SDS011;1604;53.700;10.252;2023-09-30T00:06:25;23.63;;;6.30;;
3185;SDS011;1604;53.700;10.252;2023-09-30T00:09:27;17.67;;;5.57;;
3185;SDS011;1604;53.700;10.252;2023-09-30T00:12:29;19.10;;;5.07;;
3185;SDS011;1604;53.700;10.252;2023-09-30T00:15:31;22.33;;;4.97;;
3185;SDS011;1604;53.700;10.252;2023-09-30T00:18:35;13.27;;;4.73;;
3185;SDS011;1604;53.700;10.252;2023-09-30T00:21:36;16.77;;;5.13;;
3185;SDS011;1604;53.700;10.252;2023-09-30T00:24:39;15.33;;;4.77;;
3185;SDS011;1604;53.700;10.252;2023-09-30T00:27:40;18.07;;;5.70;;
3185;SDS011;1604;53.700;10.252;2023-09-30T00:30:42;25.67;;;6.23;;
3185;SDS011;1604;53.700;10.252;2023-09-30T00:33:48;16.70;;;5.60;;
3185;SDS011;1604;53.700;10.252;2023-09-30T00:36:50;14.23;;;5.37;;
3185;SDS011;1604;53.700;10.252;2023-09-30T00:40:01;21.77;;;5.97;;
3185;SDS011;1604;53.700;10.252;2023-09-30T00:43:05;27.80;;;5.60;;
3185;SDS011;1604;53.700;10.252;2023-09-30T00:46:10;11.77;;;5.43;;
3185;SDS011;1604;53.700;10.252;2023-09-30T00:49:20;15.47;;;4.03;;
3185;SDS011;1604;53.700;10.252;2023-09-30T00:52:25;25.30;;;5.27;;
3185;SDS011;1604;53.700;10.252;2023-09-30T00:55:28;11.50;;;4.83;;
3185;SDS011;1604;53.700;10.252;2023-09-30T00:58:30;30.13;;;5.33;;
3185;SDS011;1604;53.700;10.252;2023-09-30T01:01:34;18.80;;;4.83;;
3185;SDS011;1604;53.700;10.252;2023-09-30T01:04:38;10.70;;;4.63;;
3185;SDS011;1604;53.700;10.252;2023-09-30T01:07:40;14.93;;;4.83;;
3185;SDS011;1604;53.700;10.252;2023-09-30T01:10:42;24.20;;;6.23;;
3185;SDS011;1604;53.700;10.252;2023-09-30T01:13:44;11.47;;;5.30;;
3185;SDS011;1604;53.700;10.252;2023-09-30T01:16:47;12.70;;;4.40;;
3185;SDS011;1604;53.700;10.252;2023-09-30T01:19:50;14.50;;;4.77;;
3185;SDS011;1604;53.700;10.252;2023-09-30T01:22:54;27.43;;;5.63;;
3185;SDS011;1604;53.700;10.252;2023-09-30T01:26:00;29.80;;;6.53;;
3185;SDS011;1604;53.700;10.252;2023-09-30T01:29:03;18.47;;;5.07;;
3185;SDS011;1604;53.700;10.252;2023-09-30T01:32:05;23.47;;;5.77;;
3185;SDS011;1604;53.700;10.252;2023-09-30T01:35:11;15.57;;;4.80;;
3185;SDS011;1604;53.700;10.252;2023-09-30T01:38:14;27.90;;;4.87;;
3185;SDS011;1604;53.700;10.252;2023-09-30T01:41:16;18.60;;;5.03;;
3185;SDS011;1604;53.700;10.252;2023-09-30T01:44:18;13.30;;;5.27;;
3185;SDS011;1604;53.700;10.252;2023-09-30T01:47:21;16.97;;;4.63;;
3185;SDS011;1604;53.700;10.252;2023-09-30T01:50:32;21.83;;;5.60;;
3185;SDS011;1604;53.700;10.252;2023-09-30T01:53:36;18.97;;;4.57;;
3185;SDS011;1604;53.700;10.252;2023-09-30T01:56:38;26.30;;;6.13;;
3185;SDS011;1604;53.700;10.252;2023-09-30T01:59:41;16.90;;;5.57;;
3185;SDS011;1604;53.700;10.252;2023-09-30T02:02:43;23.40;;;5.80;;
3185;SDS011;1604;53.700;10.252;2023-09-30T02:05:48;14.57;;;3.87;;
3185;SDS011;1604;53.700;10.252;2023-09-30T02:08:51;30.67;;;5.23;;
3185;SDS011;1604;53.700;10.252;2023-09-30T02:11:53;44.30;;;6.40;;
3185;SDS011;1604;53.700;10.252;2023-09-30T02:14:55;19.10;;;5.23;;
3185;SDS011;1604;53.700;10.252;2023-09-30T02:17:58;21.87;;;4.23;;
3185;SDS011;1604;53.700;10.252;2023-09-30T02:21:00;22.70;;;5.20;;
3185;SDS011;1604;53.700;10.252;2023-09-30T02:24:04;13.80;;;4.20;;
3185;SDS011;1604;53.700;10.252;2023-09-30T02:27:07;16.80;;;6.00;;
3185;SDS011;1604;53.700;10.252;2023-09-30T02:30:09;16.93;;;4.40;;
3185;SDS011;1604;53.700;10.252;2023-09-30T02:33:16;18.30;;;4.70;;
3185;SDS011;1604;53.700;10.252;2023-09-30T02:36:19;26.03;;;6.30;;
3185;SDS011;1604;53.700;10.252;2023-09-30T02:39:23;14.23;;;4.50;;
3185;SDS011;1604;53.700;10.252;2023-09-30T02:42:26;20.90;;;5.50;;
3185;SDS011;1604;53.700;10.252;2023-09-30T02:45:29;25.17;;;6.07;;
3185;SDS011;1604;53.700;10.252;2023-09-30T02:48:32;23.63;;;5.80;;
3185;SDS011;1604;53.700;10.252;2023-09-30T02:51:34;15.27;;;4.67;;
3185;SDS011;1604;53.700;10.252;2023-09-30T02:54:37;19.90;;;5.03;;
3185;SDS011;1604;53.700;10.252;2023-09-30T02:57:40;13.10;;;4.63;;
3185;SDS011;1604;53.700;10.252;2023-09-30T03:00:47;16.53;;;5.63;;
3185;SDS011;1604;53.700;10.252;2023-09-30T03:03:49;18.13;;;4.30;;
3185;SDS011;1604;53.700;10.252;2023-09-30T03:06:51;13.23;;;4.60;;
3185;SDS011;1604;53.700;10.252;2023-09-30T03:09:57;19.87;;;5.20;;
3185;SDS011;1604;53.700;10.252;2023-09-30T03:13:01;15.57;;;4.83;;
3185;SDS011;1604;53.700;10.252;2023-09-30T03:16:04;26.73;;;4.80;;
3185;SDS011;1604;53.700;10.252;2023-09-30T03:19:05;22.40;;;6.07;;
3185;SDS011;1604;53.700;10.252;2023-09-30T03:22:08;15.23;;;4.97;;
3185;SDS011;1604;53.700;10.252;2023-09-30T03:25:13;17.70;;;4.83;;
3185;SDS011;1604;53.700;10.252;2023-09-30T03:28:17;20.00;;;4.70;;
3185;SDS011;1604;53.700;10.252;2023-09-30T03:31:19;21.93;;;5.30;;
3185;SDS011;1604;53.700;10.252;2023-09-30T03:34:22;14.03;;;5.10;;
3185;SDS011;1604;53.700;10.252;2023-09-30T03:37:24;20.13;;;5.00;;
3185;SDS011;1604;53.700;10.252;2023-09-30T03:40:28;11.47;;;4.50;;
3185;SDS011;1604;53.700;10.252;2023-09-30T03:43:33;17.37;;;4.90;;
3185;SDS011;1604;53.700;10.252;2023-09-30T03:46:40;21.77;;;5.43;;
3185;SDS011;1604;53.700;10.252;2023-09-30T03:49:43;20.83;;;4.67;;
3185;SDS011;1604;53.700;10.252;2023-09-30T03:52:48;15.90;;;4.53;;
3185;SDS011;1604;53.700;10.252;2023-09-30T03:55:51;20.37;;;5.73;;
3185;SDS011;1604;53.700;10.252;2023-09-30T03:58:53;11.50;;;4.83;;
3185;SDS011;1604;53.700;10.252;2023-09-30T04:01:55;25.23;;;5.07;;
3185;SDS011;1604;53.700;10.252;2023-09-30T04:04:57;13.33;;;5.60;;
3185;SDS011;1604;53.700;10.252;2023-09-30T04:08:00;13.90;;;3.90;;
3185;SDS011;1604;53.700;10.252;2023-09-30T04:11:03;18.30;;;5.10;;
3185;SDS011;1604;53.700;10.252;2023-09-30T04:14:05;23.17;;;5.77;;
3185;SDS011;1604;53.700;10.252;2023-09-30T04:17:08;16.00;;;5.40;;
3185;SDS011;1604;53.700;10.252;2023-09-30T04:20:10;18.10;;;4.90;;
3185;SDS011;1604;53.700;10.252;2023-09-30T04:23:16;23.87;;;5.10;;
3185;SDS011;1604;53.700;10.252;2023-09-30T04:26:21;22.00;;;6.73;;
3185;SDS011;1604;53.700;10.252;2023-09-30T04:29:23;20.20;;;5.17;;
3185;SDS011;1604;53.700;10.252;2023-09-30T04:32:25;21.83;;;5.20;;
3185;SDS011;1604;53.700;10.252;2023-09-30T04:35:27;14.30;;;4.87;;
3185;SDS011;1604;53.700;10.252;2023-09-30T04:38:30;10.73;;;5.30;;
3185;SDS011;1604;53.700;10.252;2023-09-30T04:41:33;17.03;;;5.33;;
3185;SDS011;1604;53.700;10.252;2023-09-30T04:44:35;22.00;;;5.80;;
3185;SDS011;1604;53.700;10.252;2023-09-30T04:47:37;27.67;;;6.90;;
3185;SDS011;1604;53.700;10.252;2023-09-30T04:50:40;16.37;;;4.90;;
3185;SDS011;1604;53.700;10.252;2023-09-30T04:53:41;24.20;;;6.67;;
3185;SDS011;1604;53.700;10.252;2023-09-30T04:56:46;20.60;;;5.53;;
3185;SDS011;1604;53.700;10.252;2023-09-30T04:59:48;21.73;;;5.90;;
3185;SDS011;1604;53.700;10.252;2023-09-30T05:02:50;16.90;;;6.30;;
3185;SDS011;1604;53.700;10.252;2023-09-30T05:05:54;14.80;;;6.63;;
3185;SDS011;1604;53.700;10.252;2023-09-30T05:08:56;24.77;;;5.83;;
3185;SDS011;1604;53.700;10.252;2023-09-30T05:12:00;27.20;;;6.73;;
3185;SDS011;1604;53.700;10.252;2023-09-30T05:15:04;23.87;;;7.20;;
3185;SDS011;1604;53.700;10.252;2023-09-30T05:18:07;23.30;;;6.27;;
3185;SDS011;1604;53.700;10.252;2023-09-30T05:21:09;18.17;;;5.30;;
3185;SDS011;1604;53.700;10.252;2023-09-30T05:24:11;19.27;;;6.03;;
3185;SDS011;1604;53.700;10.252;2023-09-30T05:27:14;22.53;;;5.00;;
3185;SDS011;1604;53.700;10.252;2023-09-30T05:30:16;22.33;;;5.30;;
3185;SDS011;1604;53.700;10.252;2023-09-30T05:33:20;23.00;;;5.87;;
3185;SDS011;1604;53.700;10.252;2023-09-30T05:36:22;17.23;;;5.90;;
3185;SDS011;1604;53.700;10.252;2023-09-30T05:39:24;17.27;;;6.13;;
3185;SDS011;1604;53.700;10.252;2023-09-30T05:42:28;25.30;;;7.27;;
3185;SDS011;1604;53.700;10.252;2023-09-30T05:45:30;14.70;;;5.47;;
3185;SDS011;1604;53.700;10.252;2023-09-30T05:48:36;27.63;;;5.90;;
3185;SDS011;1604;53.700;10.252;2023-09-30T05:51:39;15.10;;;5.93;;
3185;SDS011;1604;53.700;10.252;2023-09-30T05:54:41;15.80;;;5.43;;
3185;SDS011;1604;53.700;10.252;2023-09-30T05:57:56;13.20;;;5.30;;
3185;SDS011;1604;53.700;10.252;2023-09-30T06:01:00;20.97;;;7.00;;
3185;SDS011;1604;53.700;10.252;2023-09-30T06:04:06;26.80;;;5.87;;
3185;SDS011;1604;53.700;10.252;2023-09-30T06:07:08;20.13;;;5.57;;
3185;SDS011;1604;53.700;10.252;2023-09-30T06:10:11;18.03;;;6.20;;
3185;SDS011;1604;53.700;10.252;2023-09-30T06:13:19;11.70;;;5.40;;
3185;SDS011;1604;53.700;10.252;2023-09-30T06:16:21;17.07;;;5.53;;
3185;SDS011;1604;53.700;10.252;2023-09-30T06:19:24;19.43;;;6.13;;
3185;SDS011;1604;53.700;10.252;2023-09-30T06:22:26;30.50;;;6.03;;
3185;SDS011;1604;53.700;10.252;2023-09-30T06:25:28;12.47;;;6.43;;
3185;SDS011;1604;53.700;10.252;2023-09-30T06:28:32;15.47;;;5.50;;
3185;SDS011;1604;53.700;10.252;2023-09-30T06:31:40;11.90;;;5.60;;
3185;SDS011;1604;53.700;10.252;2023-09-30T06:34:43;17.63;;;5.63;;
3185;SDS011;1604;53.700;10.252;2023-09-30T06:37:45;13.13;;;5.70;;
3185;SDS011;1604;53.700;10.252;2023-09-30T06:40:47;18.27;;;5.87;;
3185;SDS011;1604;53.700;10.252;2023-09-30T06:43:51;15.60;;;5.43;;
3185;SDS011;1604;53.700;10.252;2023-09-30T06:46:53;18.97;;;5.97;;
3185;SDS011;1604;53.700;10.252;2023-09-30T06:49:55;23.93;;;6.73;;
3185;SDS011;1604;53.700;10.252;2023-09-30T06:52:57;19.90;;;6.23;;
3185;SDS011;1604;53.700;10.252;2023-09-30T06:55:59;16.80;;;7.00;;
3185;SDS011;1604;53.700;10.252;2023-09-30T06:59:05;20.97;;;5.93;;
3185;SDS011;1604;53.700;10.252;2023-09-30T07:02:07;14.20;;;5.60;;
3185;SDS011;1604;53.700;10.252;2023-09-30T07:05:09;15.67;;;6.77;;
3185;SDS011;1604;53.700;10.252;2023-09-30T07:08:12;18.30;;;5.90;;
3185;SDS011;1604;53.700;10.252;2023-09-30T07:11:14;27.67;;;5.70;;
3185;SDS011;1604;53.700;10.252;2023-09-30T07:14:17;19.33;;;6.70;;
3185;SDS011;1604;53.700;10.252;2023-09-30T07:17:19;25.77;;;5.20;;
3185;SDS011;1604;53.700;10.252;2023-09-30T07:20:22;17.17;;;5.40;;
3185;SDS011;1604;53.700;10.252;2023-09-30T07:23:23;11.13;;;5.20;;
3185;SDS011;1604;53.700;10.252;2023-09-30T07:26:25;21.90;;;5.87;;
3185;SDS011;1604;53.700;10.252;2023-09-30T07:29:29;14.53;;;4.80;;
3185;SDS011;1604;53.700;10.252;2023-09-30T07:32:31;15.17;;;4.60;;
3185;SDS011;1604;53.700;10.252;2023-09-30T07:35:33;18.30;;;4.73;;
3185;SDS011;1604;53.700;10.252;2023-09-30T07:38:35;13.43;;;5.10;;
3185;SDS011;1604;53.700;10.252;2023-09-30T07:41:37;24.07;;;4.77;;
3185;SDS011;1604;53.700;10.252;2023-09-30T07:44:40;14.80;;;4.60;;
3185;SDS011;1604;53.700;10.252;2023-09-30T07:47:43;14.37;;;4.23;;
3185;SDS011;1604;53.700;10.252;2023-09-30T07:50:46;17.43;;;4.07;;
3185;SDS011;1604;53.700;10.252;2023-09-30T07:53:48;12.37;;;3.57;;
3185;SDS011;1604;53.700;10.252;2023-09-30T07:56:50;8.20;;;4.73;;
3185;SDS011;1604;53.700;10.252;2023-09-30T07:59:57;15.80;;;4.53;;
3185;SDS011;1604;53.700;10.252;2023-09-30T08:02:59;14.43;;;4.20;;
3185;SDS011;1604;53.700;10.252;2023-09-30T08:06:02;17.63;;;4.23;;
3185;SDS011;1604;53.700;10.252;2023-09-30T08:09:04;16.33;;;4.27;;
3185;SDS011;1604;53.700;10.252;2023-09-30T08:12:10;14.00;;;3.80;;
3185;SDS011;1604;53.700;10.252;2023-09-30T08:15:14;12.07;;;4.70;;
3185;SDS011;1604;53.700;10.252;2023-09-30T08:18:16;12.30;;;3.67;;
3185;SDS011;1604;53.700;10.252;2023-09-30T08:21:18;6.37;;;3.53;;
3185;SDS011;1604;53.700;10.252;2023-09-30T08:24:20;13.50;;;3.63;;
3185;SDS011;1604;53.700;10.252;2023-09-30T08:27:22;13.83;;;3.90;;
3185;SDS011;1604;53.700;10.252;2023-09-30T08:30:26;13.33;;;4.57;;
3185;SDS011;1604;53.700;10.252;2023-09-30T08:33:28;6.63;;;2.87;;
3185;SDS011;1604;53.700;10.252;2023-09-30T08:36:31;9.77;;;3.03;;
3185;SDS011;1604;53.700;10.252;2023-09-30T08:39:37;13.40;;;3.53;;
3185;SDS011;1604;53.700;10.252;2023-09-30T08:42:39;19.80;;;3.70;;
3185;SDS011;1604;53.700;10.252;2023-09-30T08:45:43;14.37;;;3.70;;
3185;SDS011;1604;53.700;10.252;2023-09-30T08:48:48;11.50;;;3.77;;
3185;SDS011;1604;53.700;10.252;2023-09-30T08:51:50;11.50;;;3.53;;
3185;SDS011;1604;53.700;10.252;2023-09-30T08:54:53;11.43;;;3.80;;
3185;SDS011;1604;53.700;10.252;2023-09-30T08:57:58;20.67;;;4.53;;
3185;SDS011;1604;53.700;10.252;2023-09-30T09:01:01;15.53;;;3.53;;
3185;SDS011;1604;53.700;10.252;2023-09-30T09:04:03;10.03;;;3.07;;
3185;SDS011;1604;53.700;10.252;2023-09-30T09:07:08;14.47;;;3.93;;
3185;SDS011;1604;53.700;10.252;2023-09-30T09:10:10;20.07;;;4.10;;
3185;SDS011;1604;53.700;10.252;2023-09-30T09:13:14;11.17;;;3.80;;
3185;SDS011;1604;53.700;10.252;2023-09-30T09:16:17;15.97;;;3.50;;
3185;SDS011;1604;53.700;10.252;2023-09-30T09:19:20;10.70;;;3.30;;
3185;SDS011;1604;53.700;10.252;2023-09-30T09:22:22;9.00;;;2.97;;
3185;SDS011;1604;53.700;10.252;2023-09-30T09:25:24;8.47;;;2.80;;
3185;SDS011;1604;53.700;10.252;2023-09-30T09:28:33;20.77;;;3.93;;
3185;SDS011;1604;53.700;10.252;2023-09-30T09:31:37;10.37;;;3.47;;
3185;SDS011;1604;53.700;10.252;2023-09-30T09:34:40;13.00;;;4.13;;
3185;SDS011;1604;53.700;10.252;2023-09-30T09:37:43;14.13;;;3.47;;
3185;SDS011;1604;53.700;10.252;2023-09-30T09:40:59;14.70;;;3.80;;
3185;SDS011;1604;53.700;10.252;2023-09-30T09:44:00;13.53;;;3.47;;
3185;SDS011;1604;53.700;10.252;2023-09-30T09:47:04;17.40;;;3.00;;
3185;SDS011;1604;53.700;10.252;2023-09-30T09:50:08;27.23;;;3.97;;
3185;SDS011;1604;53.700;10.252;2023-09-30T09:53:11;14.40;;;3.23;;
3185;SDS011;1604;53.700;10.252;2023-09-30T09:56:15;14.77;;;3.50;;
3185;SDS011;1604;53.700;10.252;2023-09-30T09:59:21;15.63;;;3.87;;
3185;SDS011;1604;53.700;10.252;2023-09-30T10:02:27;10.73;;;3.90;;
3185;SDS011;1604;53.700;10.252;2023-09-30T10:05:30;17.70;;;3.37;;
3185;SDS011;1604;53.700;10.252;2023-09-30T10:08:33;14.00;;;2.93;;
3185;SDS011;1604;53.700;10.252;2023-09-30T10:11:41;13.17;;;4.07;;
3185;SDS011;1604;53.700;10.252;2023-09-30T10:14:43;12.57;;;3.27;;
3185;SDS011;1604;53.700;10.252;2023-09-30T10:21:07;5.77;;;2.07;;
3185;SDS011;1604;53.700;10.252;2023-09-30T10:27:35;6.57;;;2.67;;
3185;SDS011;1604;53.700;10.252;2023-09-30T10:34:20;6.67;;;2.30;;
3185;SDS011;1604;53.700;10.252;2023-09-30T10:37:23;14.33;;;2.83;;
3185;SDS011;1604;53.700;10.252;2023-09-30T10:40:25;20.90;;;2.50;;
3185;SDS011;1604;53.700;10.252;2023-09-30T10:43:29;15.60;;;3.30;;
3185;SDS011;1604;53.700;10.252;2023-09-30T10:46:32;18.63;;;3.90;;
3185;SDS011;1604;53.700;10.252;2023-09-30T10:49:38;8.67;;;3.07;;
3185;SDS011;1604;53.700;10.252;2023-09-30T10:52:40;11.70;;;2.90;;
3185;SDS011;1604;53.700;10.252;2023-09-30T10:55:42;11.00;;;2.53;;
3185;SDS011;1604;53.700;10.252;2023-09-30T10:58:51;12.27;;;3.00;;
3185;SDS011;1604;53.700;10.252;2023-09-30T11:01:54;9.77;;;2.57;;
3185;SDS011;1604;53.700;10.252;2023-09-30T11:04:57;14.77;;;4.13;;
3185;SDS011;1604;53.700;10.252;2023-09-30T11:08:08;12.40;;;2.77;;
3185;SDS011;1604;53.700;10.252;2023-09-30T11:11:11;8.17;;;2.63;;
3185;SDS011;1604;53.700;10.252;2023-09-30T11:14:17;10.97;;;2.67;;
3185;SDS011;1604;53.700;10.252;2023-09-30T11:17:23;16.43;;;2.90;;
3185;SDS011;1604;53.700;10.252;2023-09-30T11:20:26;5.57;;;3.07;;
3185;SDS011;1604;53.700;10.252;2023-09-30T11:23:29;6.20;;;2.63;;
3185;SDS011;1604;53.700;10.252;2023-09-30T11:26:31;6.77;;;2.40;;
3185;SDS011;1604;53.700;10.252;2023-09-30T11:29:33;7.47;;;2.83;;
3185;SDS011;1604;53.700;10.252;2023-09-30T11:32:36;9.73;;;2.67;;
3185;SDS011;1604;53.700;10.252;2023-09-30T11:35:40;8.00;;;2.40;;
3185;SDS011;1604;53.700;10.252;2023-09-30T11:38:44;6.37;;;3.00;;
3185;SDS011;1604;53.700;10.252;2023-09-30T11:41:47;5.70;;;2.23;;
3185;SDS011;1604;53.700;10.252;2023-09-30T11:44:49;9.03;;;2.90;;
3185;SDS011;1604;53.700;10.252;2023-09-30T11:47:51;6.97;;;2.97;;
3185;SDS011;1604;53.700;10.252;2023-09-30T11:50:55;8.50;;;2.60;;
3185;SDS011;1604;53.700;10.252;2023-09-30T11:54:02;8.20;;;2.40;;
3185;SDS011;1604;53.700;10.252;2023-09-30T11:57:06;4.67;;;2.40;;
3185;SDS011;1604;53.700;10.252;2023-09-30T12:00:13;3.50;;;1.47;;
3185;SDS011;1604;53.700;10.252;2023-09-30T12:03:15;4.80;;;2.77;;
3185;SDS011;1604;53.700;10.252;2023-09-30T12:06:22;10.20;;;2.70;;
3185;SDS011;1604;53.700;10.252;2023-09-30T12:09:24;4.10;;;2.00;;
3185;SDS011;1604;53.700;10.252;2023-09-30T12:12:27;18.30;;;2.77;;
3185;SDS011;1604;53.700;10.252;2023-09-30T12:15:29;6.63;;;2.30;;
3185;SDS011;1604;53.700;10.252;2023-09-30T12:18:31;14.97;;;3.03;;
3185;SDS011;1604;53.700;10.252;2023-09-30T12:21:34;8.67;;;2.10;;
3185;SDS011;1604;53.700;10.252;2023-09-30T12:24:36;7.80;;;3.13;;
3185;SDS011;1604;53.700;10.252;2023-09-30T12:27:39;7.10;;;2.33;;
3185;SDS011;1604;53.700;10.252;2023-09-30T12:30:41;5.50;;;2.40;;
3185;SDS011;1604;53.700;10.252;2023-09-30T12:33:43;13.60;;;2.43;;
3185;SDS011;1604;53.700;10.252;2023-09-30T12:36:51;4.70;;;1.70;;
3185;SDS011;1604;53.700;10.252;2023-09-30T12:39:53;3.53;;;1.97;;
3185;SDS011;1604;53.700;10.252;2023-09-30T12:42:55;6.93;;;2.80;;
3185;SDS011;1604;53.700;10.252;2023-09-30T12:45:57;7.87;;;1.93;;
3185;SDS011;1604;53.700;10.252;2023-09-30T12:48:59;9.60;;;2.30;;
3185;SDS011;1604;53.700;10.252;2023-09-30T12:52:04;7.17;;;2.83;;
3185;SDS011;1604;53.700;10.252;2023-09-30T12:55:06;8.00;;;2.70;;
3185;SDS011;1604;53.700;10.252;2023-09-30T12:58:08;5.40;;;2.10;;
3185;SDS011;1604;53.700;10.252;2023-09-30T13:01:11;5.27;;;1.87;;
3185;SDS011;1604;53.700;10.252;2023-09-30T13:04:14;8.57;;;2.00;;
3185;SDS011;1604;53.700;10.252;2023-09-30T13:07:17;8.53;;;3.07;;
3185;SDS011;1604;53.700;10.252;2023-09-30T13:10:19;18.73;;;2.70;;
3185;SDS011;1604;53.700;10.252;2023-09-30T13:13:23;8.90;;;2.70;;
3185;SDS011;1604;53.700;10.252;2023-09-30T13:16:25;10.47;;;2.40;;
3185;SDS011;1604;53.700;10.252;2023-09-30T13:19:27;11.80;;;2.93;;
3185;SDS011;1604;53.700;10.252;2023-09-30T13:22:31;8.13;;;2.80;;
3185;SDS011;1604;53.700;10.252;2023-09-30T13:25:33;10.13;;;2.70;;
3185;SDS011;1604;53.700;10.252;2023-09-30T13:28:35;10.50;;;2.40;;
3185;SDS011;1604;53.700;10.252;2023-09-30T13:31:37;7.50;;;2.30;;
3185;SDS011;1604;53.700;10.252;2023-09-30T13:34:39;14.77;;;2.70;;
3185;SDS011;1604;53.700;10.252;2023-09-30T13:37:42;10.80;;;3.03;;
3185;SDS011;1604;53.700;10.252;2023-09-30T13:40:44;14.07;;;2.63;;
3185;SDS011;1604;53.700;10.252;2023-09-30T13:43:47;7.80;;;2.40;;
3185;SDS011;1604;53.700;10.252;2023-09-30T13:46:49;6.60;;;2.50;;
3185;SDS011;1604;53.700;10.252;2023-09-30T13:49:51;12.40;;;2.37;;
3185;SDS011;1604;53.700;10.252;2023-09-30T13:52:54;11.83;;;2.63;;
3185;SDS011;1604;53.700;10.252;2023-09-30T13:55:57;16.83;;;2.90;;
3185;SDS011;1604;53.700;10.252;2023-09-30T13:58:59;7.73;;;2.30;;
3185;SDS011;1604;53.700;10.252;2023-09-30T14:02:00;11.47;;;2.40;;
3185;SDS011;1604;53.700;10.252;2023-09-30T14:05:04;8.00;;;2.37;;
3185;SDS011;1604;53.700;10.252;2023-09-30T14:08:09;9.50;;;2.50;;
3185;SDS011;1604;53.700;10.252;2023-09-30T14:11:11;6.03;;;2.47;;
3185;SDS011;1604;53.700;10.252;2023-09-30T14:14:13;5.17;;;2.17;;
3185;SDS011;1604;53.700;10.252;2023-09-30T14:17:15;11.70;;;3.23;;
3185;SDS011;1604;53.700;10.252;2023-09-30T14:20:16;9.80;;;2.83;;
3185;SDS011;1604;53.700;10.252;2023-09-30T14:23:20;9.23;;;3.40;;
3185;SDS011;1604;53.700;10.252;2023-09-30T14:26:23;8.27;;;2.57;;
3185;SDS011;1604;53.700;10.252;2023-09-30T14:29:25;7.13;;;1.93;;
3185;SDS011;1604;53.700;10.252;2023-09-30T14:32:28;14.27;;;3.03;;
3185;SDS011;1604;53.700;10.252;2023-09-30T14:35:31;6.27;;;2.30;;
3185;SDS011;1604;53.700;10.252;2023-09-30T14:38:36;12.40;;;2.83;;
3185;SDS011;1604;53.700;10.252;2023-09-30T14:41:37;11.70;;;2.83;;
3185;SDS011;1604;53.700;10.252;2023-09-30T14:44:39;7.67;;;2.70;;
3185;SDS011;1604;53.700;10.252;2023-09-30T14:47:42;10.27;;;3.37;;
3185;SDS011;1604;53.700;10.252;2023-09-30T14:50:48;4.17;;;2.60;;
3185;SDS011;1604;53.700;10.252;2023-09-30T14:53:52;9.50;;;2.60;;
3185;SDS011;1604;53.700;10.252;2023-09-30T14:56:54;5.00;;;2.80;;
3185;SDS011;1604;53.700;10.252;2023-09-30T14:59:57;8.13;;;3.07;;
3185;SDS011;1604;53.700;10.252;2023-09-30T15:02:59;6.37;;;2.60;;
3185;SDS011;1604;53.700;10.252;2023-09-30T15:06:01;8.90;;;3.07;;
3185;SDS011;1604;53.700;10.252;2023-09-30T15:09:05;5.93;;;2.30;;
3185;SDS011;1604;53.700;10.252;2023-09-30T15:12:09;6.20;;;3.13;;
3185;SDS011;1604;53.700;10.252;2023-09-30T15:15:11;6.20;;;2.50;;
3185;SDS011;1604;53.700;10.252;2023-09-30T15:18:14;6.90;;;2.70;;
3185;SDS011;1604;53.700;10.252;2023-09-30T15:21:15;9.03;;;2.43;;
3185;SDS011;1604;53.700;10.252;2023-09-30T15:24:19;14.40;;;2.03;;
3185;SDS011;1604;53.700;10.252;2023-09-30T15:27:21;6.90;;;2.73;;
3185;SDS011;1604;53.700;10.252;2023-09-30T15:30:25;5.77;;;2.43;;
3185;SDS011;1604;53.700;10.252;2023-09-30T15:33:27;3.27;;;1.70;;
3185;SDS011;1604;53.700;10.252;2023-09-30T15:36:29;15.27;;;3.20;;
3185;SDS011;1604;53.700;10.252;2023-09-30T15:39:36;13.17;;;2.50;;
3185;SDS011;1604;53.700;10.252;2023-09-30T15:42:39;11.90;;;2.63;;
3185;SDS011;1604;53.700;10.252;2023-09-30T15:45:41;7.67;;;2.53;;
3185;SDS011;1604;53.700;10.252;2023-09-30T15:48:43;5.40;;;2.53;;
3185;SDS011;1604;53.700;10.252;2023-09-30T15:51:46;7.50;;;3.30;;
3185;SDS011;1604;53.700;10.252;2023-09-30T15:54:49;4.23;;;2.57;;
3185;SDS011;1604;53.700;10.252;2023-09-30T15:57:52;4.73;;;1.90;;
3185;SDS011;1604;53.700;10.252;2023-09-30T16:00:54;10.23;;;2.20;;
3185;SDS011;1604;53.700;10.252;2023-09-30T16:03:57;4.00;;;2.13;;
3185;SDS011;1604;53.700;10.252;2023-09-30T16:06:59;4.20;;;2.13;;
3185;SDS011;1604;53.700;10.252;2023-09-30T16:10:02;5.17;;;2.00;;
3185;SDS011;1604;53.700;10.252;2023-09-30T16:13:06;3.40;;;2.07;;
3185;SDS011;1604;53.700;10.252;2023-09-30T16:16:08;11.97;;;2.27;;
3185;SDS011;1604;53.700;10.252;2023-09-30T16:19:11;6.80;;;2.50;;
3185;SDS011;1604;53.700;10.252;2023-09-30T16:22:13;8.10;;;2.77;;
3185;SDS011;1604;53.700;10.252;2023-09-30T16:25:16;16.53;;;3.23;;
3185;SDS011;1604;53.700;10.252;2023-09-30T16:28:18;8.70;;;2.33;;
3185;SDS011;1604;53.700;10.252;2023-09-30T16:31:20;6.13;;;2.17;;
3185;SDS011;1604;53.700;10.252;2023-09-30T16:34:22;5.30;;;3.07;;
3185;SDS011;1604;53.700;10.252;2023-09-30T16:37:24;9.77;;;3.17;;
3185;SDS011;1604;53.700;10.252;2023-09-30T16:40:27;8.27;;;4.13;;
3185;SDS011;1604;53.700;10.252;2023-09-30T16:43:29;9.33;;;3.20;;
3185;SDS011;1604;53.700;10.252;2023-09-30T16:46:31;7.73;;;2.63;;
3185;SDS011;1604;53.700;10.252;2023-09-30T16:49:33;16.13;;;3.33;;
3185;SDS011;1604;53.700;10.252;2023-09-30T16:52:36;15.30;;;3.43;;
3185;SDS011;1604;53.700;10.252;2023-09-30T16:55:39;20.00;;;3.70;;
3185;SDS011;1604;53.700;10.252;2023-09-30T16:58:41;9.80;;;2.77;;
3185;SDS011;1604;53.700;10.252;2023-09-30T17:01:43;8.67;;;3.20;;
3185;SDS011;1604;53.700;10.252;2023-09-30T17:04:45;10.50;;;2.77;;
3185;SDS011;1604;53.700;10.252;2023-09-30T17:07:47;8.93;;;2.80;;
3185;SDS011;1604;53.700;10.252;2023-09-30T17:10:50;5.03;;;2.60;;
3185;SDS011;1604;53.700;10.252;2023-09-30T17:13:54;10.63;;;2.57;;
3185;SDS011;1604;53.700;10.252;2023-09-30T17:16:56;10.00;;;3.00;;
3185;SDS011;1604;53.700;10.252;2023-09-30T17:19:58;8.30;;;3.13;;
3185;SDS011;1604;53.700;10.252;2023-09-30T17:23:00;10.87;;;3.73;;
3185;SDS011;1604;53.700;10.252;2023-09-30T17:26:03;12.60;;;4.10;;
3185;SDS011;1604;53.700;10.252;2023-09-30T17:29:05;8.83;;;3.00;;
3185;SDS011;1604;53.700;10.252;2023-09-30T17:32:07;6.17;;;2.60;;
3185;SDS011;1604;53.700;10.252;2023-09-30T17:35:09;9.03;;;2.57;;
3185;SDS011;1604;53.700;10.252;2023-09-30T17:38:12;7.73;;;2.93;;
3185;SDS011;1604;53.700;10.252;2023-09-30T17:41:15;7.93;;;3.50;;
3185;SDS011;1604;53.700;10.252;2023-09-30T17:44:17;14.83;;;3.57;;
3185;SDS011;1604;53.700;10.252;2023-09-30T17:47:19;8.23;;;3.17;;
3185;SDS011;1604;53.700;10.252;2023-09-30T17:50:21;5.27;;;3.23;;
3185;SDS011;1604;53.700;10.252;2023-09-30T17:53:23;12.23;;;4.70;;
3185;SDS011;1604;53.700;10.252;2023-09-30T17:56:26;6.83;;;3.30;;
3185;SDS011;1604;53.700;10.252;2023-09-30T17:59:31;5.43;;;2.70;;
3185;SDS011;1604;53.700;10.252;2023-09-30T18:02:33;13.70;;;2.93;;
3185;SDS011;1604;53.700;10.252;2023-09-30T18:05:35;9.53;;;3.30;;
3185;SDS011;1604;53.700;10.252;2023-09-30T18:08:42;8.63;;;2.97;;
3185;SDS011;1604;53.700;10.252;2023-09-30T18:11:47;6.90;;;3.60;;
3185;SDS011;1604;53.700;10.252;2023-09-30T18:14:51;19.63;;;3.30;;
3185;SDS011;1604;53.700;10.252;2023-09-30T18:17:56;14.17;;;4.07;;
3185;SDS011;1604;53.700;10.252;2023-09-30T18:20:58;13.50;;;4.03;;
3185;SDS011;1604;53.700;10.252;2023-09-30T18:24:00;9.67;;;2.90;;
3185;SDS011;1604;53.700;10.252;2023-09-30T18:27:03;12.20;;;4.07;;
3185;SDS011;1604;53.700;10.252;2023-09-30T18:30:06;10.90;;;3.60;;
3185;SDS011;1604;53.700;10.252;2023-09-30T18:33:09;8.10;;;3.60;;
3185;SDS011;1604;53.700;10.252;2023-09-30T18:36:13;5.43;;;2.50;;
3185;SDS011;1604;53.700;10.252;2023-09-30T18:39:15;6.83;;;3.10;;